map of MTN home
MTN - Airport
Location
City:  Baltimore, Maryland, United States
Name:Martin State Airport
ICAO:KMTN
IATA:MTN
FAA LID:MTN

Details
Type:Airport (Airfield)
Use:Public/Civil
Latitude:3919'32"N (39.325667)
Longitude:7624'50"W (-76.413777)
Datum:WGS 1984
Elevation:21 ft (6 m)
Variation:11.29W (WMM2015 magnetic declination)
-0.00 annual change
Runways:1
Longest:6997 × 180 ft (2133 × 55 m), paved

Time
Time Zone:UTC-5 (DST-4)
Local Time:

Weather
METAR:KMTN 120442Z AUTO 00000KT 10SM BKN055 00/M05 A3007 RMK AO2
TAF:KMTN 112322Z 1200/1224 VRB04KT P6SM SCT200
AMD NOT SKED 1202/1212

Related Locations
Nearby:
Farthest:YAUG: 11713 mi / 18850 km
Augusta [Augusta Airport], WA, AU

Find:

   beyond  
but within

Other Information
Maps:
NOTAMs:
Links:
Sources:

  
  • flag of United States
  • flag of Maryland
  • flag of Baltimore
  

Airport Diagram

Airport diagram for MTN

Airport diagram PDF

Sectional Chart

Flight Planning
at skyvector.com

Satellite Image

Google Maps Satellite view

 

Copyright © 2004-2018 Karl L. Swartz. All rights reserved.
The Great Circle Mapper name and logo are trademarks of the Great Circle Mapper.
All other trademarks mentioned herein belong to their respective owners.
Please see credits for attibutions and further copyright information.

  Follow gcmap on Facebook Follow gcmap on Twitter Follow gcmap on Google+ GCmap on LinkedIn

hCard Microformat

Geo Microformat